Brownwood, TX (76801)

5:32 PM CDT on August 29, 2015 (GMT -0500)
Early | | Change Station
CLOSE
Current Station
Personal Weather Station
Location: Early, TX
Elevation: 1407 ft
Nearby Weather Stations

Elev 1407 ft 31.74 °N, 98.94 °W | Updated 11 minutes ago

Overcast
Overcast
83.5 °F
Feels Like 84 °F
N
2.7
Wind Variable Wind from West

Today
High -- | Low -- °F
--% Chance of Precip.
Yesterday
High -- | Low -- °F
Precip. -- in
7:09 AM 8:03 PM
Full, 100% visible
Pressure 30.03 in
Visibility 10.0 miles
Clouds Clear
Heat Index 84 °F
Dew Point 61 °F
Humidity 47%
Rainfall 0.00 in
Snow Depth Not available.
UV 4 out of 12
Pollen 8.20 out of 12
Air Quality Not available.
Flu Activity Not available.
METAR KBWD 292215Z AUTO 32006KT 10SM CLR 27/19 A3003 RMK AO2
Pressure 30.03 in
Visibility 10.0 miles
Clouds Clear
Heat Index 84 °F
Dew Point 61 °F
Humidity 47%
Rainfall 0.00 in
Snow Depth Not available.
UV 4 out of 12
Pollen 8.20 out of 12
Air Quality Not available.
Flu Activity Not available.
METAR KBWD 292215Z AUTO 32006KT 10SM CLR 27/19 A3003 RMK AO2
Nowcast | as of 5:01 PM CDT on August 29, 2015

Light rain showers...and a few thunderstorms...will continue this afternoon across west central Texas. Through 7 PM...the greatest rain chances will reside north and east of a Sweetwater to Brownwood line. Rainfall amounts will remain light for most areas...although an embedded thunderstorm may result in 1/10 of an inch of rain.

×

10-Day Weather Forecast

×

Almanac

Astronomy

Aug. 29, 2015 Rise Set
Actual Time
Civil Twilight
Nautical Twilight
Astronomical Twilight
Moon
Length of Visible Light
Length of Day
Tomorrow will be .
, % of the Moon is Illuminated

Today's Extremes

State Highs State Lows

Community

WunderPhotos

Upload Photos

1,850,775 photos uploaded!

WunderBlogs® & News

Nearby

Air Quality

  Air Quality AQ Index Pollutant
Not available.

Snow Depth

Station Depth Elevation

Earthquake Activity

City Distance Mag. Time & Date
Minimum magnitude displayed is 2.5.

Coastal Water Temperatures

Place Temperature

Stations

Nearby Weather Stations

Station Location Temp. Windchill Dew Point Humidity Wind Precip. Elev Updated Type